sensor_id;sensor_type;location;lat;lon;timestamp;P1;durP1;ratioP1;P2;durP2;ratioP2
11960;SDS011;6040;49.358;11.140;2022-11-23T00:02:14;5.60;;;3.67;;
11960;SDS011;6040;49.358;11.140;2022-11-23T00:04:40;4.80;;;3.70;;
11960;SDS011;6040;49.358;11.140;2022-11-23T00:07:07;6.03;;;3.80;;
11960;SDS011;6040;49.358;11.140;2022-11-23T00:09:34;6.90;;;3.50;;
11960;SDS011;6040;49.358;11.140;2022-11-23T00:12:01;6.27;;;3.60;;
11960;SDS011;6040;49.358;11.140;2022-11-23T00:14:27;6.23;;;3.40;;
11960;SDS011;6040;49.358;11.140;2022-11-23T00:16:56;8.33;;;3.30;;
11960;SDS011;6040;49.358;11.140;2022-11-23T00:19:22;8.53;;;3.17;;
11960;SDS011;6040;49.358;11.140;2022-11-23T00:21:49;6.33;;;3.37;;
11960;SDS011;6040;49.358;11.140;2022-11-23T00:24:16;5.37;;;2.93;;
11960;SDS011;6040;49.358;11.140;2022-11-23T00:26:43;6.07;;;3.23;;
11960;SDS011;6040;49.358;11.140;2022-11-23T00:29:10;6.40;;;3.70;;
11960;SDS011;6040;49.358;11.140;2022-11-23T00:31:36;5.37;;;3.37;;
11960;SDS011;6040;49.358;11.140;2022-11-23T00:34:04;7.17;;;3.03;;
11960;SDS011;6040;49.358;11.140;2022-11-23T00:36:31;6.87;;;3.40;;
11960;SDS011;6040;49.358;11.140;2022-11-23T00:38:58;6.13;;;3.30;;
11960;SDS011;6040;49.358;11.140;2022-11-23T00:41:25;5.70;;;3.07;;
11960;SDS011;6040;49.358;11.140;2022-11-23T00:43:53;5.43;;;3.03;;
11960;SDS011;6040;49.358;11.140;2022-11-23T00:46:21;6.80;;;2.97;;
11960;SDS011;6040;49.358;11.140;2022-11-23T00:48:50;6.47;;;2.90;;
11960;SDS011;6040;49.358;11.140;2022-11-23T00:51:19;5.27;;;2.93;;
11960;SDS011;6040;49.358;11.140;2022-11-23T00:53:48;4.47;;;2.70;;
11960;SDS011;6040;49.358;11.140;2022-11-23T00:56:15;5.90;;;2.90;;
11960;SDS011;6040;49.358;11.140;2022-11-23T00:58:46;5.20;;;3.07;;
11960;SDS011;6040;49.358;11.140;2022-11-23T01:01:13;5.97;;;2.83;;
11960;SDS011;6040;49.358;11.140;2022-11-23T01:03:42;5.10;;;2.90;;
11960;SDS011;6040;49.358;11.140;2022-11-23T01:06:11;3.23;;;2.30;;
11960;SDS011;6040;49.358;11.140;2022-11-23T01:08:40;3.87;;;2.70;;
11960;SDS011;6040;49.358;11.140;2022-11-23T01:11:08;3.53;;;2.57;;
11960;SDS011;6040;49.358;11.140;2022-11-23T01:13:36;5.93;;;3.07;;
11960;SDS011;6040;49.358;11.140;2022-11-23T01:16:06;4.13;;;2.50;;
11960;SDS011;6040;49.358;11.140;2022-11-23T01:18:33;6.83;;;2.67;;
11960;SDS011;6040;49.358;11.140;2022-11-23T01:21:00;7.33;;;3.03;;
11960;SDS011;6040;49.358;11.140;2022-11-23T01:23:27;4.40;;;2.70;;
11960;SDS011;6040;49.358;11.140;2022-11-23T01:25:55;4.90;;;2.73;;
11960;SDS011;6040;49.358;11.140;2022-11-23T01:28:23;4.20;;;2.60;;
11960;SDS011;6040;49.358;11.140;2022-11-23T01:30:49;3.30;;;2.50;;
11960;SDS011;6040;49.358;11.140;2022-11-23T01:33:16;6.30;;;2.90;;
11960;SDS011;6040;49.358;11.140;2022-11-23T01:35:43;5.43;;;3.13;;
11960;SDS011;6040;49.358;11.140;2022-11-23T01:38:10;4.80;;;2.70;;
11960;SDS011;6040;49.358;11.140;2022-11-23T01:40:40;3.70;;;2.70;;
11960;SDS011;6040;49.358;11.140;2022-11-23T01:43:14;6.40;;;2.80;;
11960;SDS011;6040;49.358;11.140;2022-11-23T01:45:42;9.60;;;2.50;;
11960;SDS011;6040;49.358;11.140;2022-11-23T01:48:12;3.87;;;2.23;;
11960;SDS011;6040;49.358;11.140;2022-11-23T01:50:43;4.70;;;2.60;;
11960;SDS011;6040;49.358;11.140;2022-11-23T01:53:13;3.57;;;2.50;;
11960;SDS011;6040;49.358;11.140;2022-11-23T01:55:41;5.03;;;2.30;;
11960;SDS011;6040;49.358;11.140;2022-11-23T01:58:09;5.37;;;2.87;;
11960;SDS011;6040;49.358;11.140;2022-11-23T02:00:39;8.47;;;3.10;;
11960;SDS011;6040;49.358;11.140;2022-11-23T02:03:06;4.13;;;2.60;;
11960;SDS011;6040;49.358;11.140;2022-11-23T02:05:36;4.37;;;2.50;;
11960;SDS011;6040;49.358;11.140;2022-11-23T02:08:06;4.63;;;2.77;;
11960;SDS011;6040;49.358;11.140;2022-11-23T02:10:34;4.87;;;2.50;;
11960;SDS011;6040;49.358;11.140;2022-11-23T02:13:02;4.50;;;2.80;;
11960;SDS011;6040;49.358;11.140;2022-11-23T02:15:31;3.43;;;2.60;;
11960;SDS011;6040;49.358;11.140;2022-11-23T02:18:02;5.23;;;3.10;;
11960;SDS011;6040;49.358;11.140;2022-11-23T02:20:33;3.37;;;2.53;;
11960;SDS011;6040;49.358;11.140;2022-11-23T02:23:04;5.00;;;2.83;;
11960;SDS011;6040;49.358;11.140;2022-11-23T02:25:39;5.33;;;2.73;;
11960;SDS011;6040;49.358;11.140;2022-11-23T02:28:17;7.20;;;2.90;;
11960;SDS011;6040;49.358;11.140;2022-11-23T02:30:46;3.73;;;2.70;;
11960;SDS011;6040;49.358;11.140;2022-11-23T02:33:15;4.43;;;2.60;;
11960;SDS011;6040;49.358;11.140;2022-11-23T02:35:46;4.47;;;2.53;;
11960;SDS011;6040;49.358;11.140;2022-11-23T02:38:14;4.90;;;2.53;;
11960;SDS011;6040;49.358;11.140;2022-11-23T02:40:43;4.10;;;2.30;;
11960;SDS011;6040;49.358;11.140;2022-11-23T02:43:12;5.07;;;2.60;;
11960;SDS011;6040;49.358;11.140;2022-11-23T02:45:40;3.40;;;2.47;;
11960;SDS011;6040;49.358;11.140;2022-11-23T02:48:11;5.13;;;2.50;;
11960;SDS011;6040;49.358;11.140;2022-11-23T02:50:38;4.63;;;2.37;;
11960;SDS011;6040;49.358;11.140;2022-11-23T02:53:05;3.83;;;2.77;;
11960;SDS011;6040;49.358;11.140;2022-11-23T02:55:33;3.43;;;2.33;;
11960;SDS011;6040;49.358;11.140;2022-11-23T02:58:00;6.20;;;3.03;;
11960;SDS011;6040;49.358;11.140;2022-11-23T03:00:29;4.67;;;2.53;;
11960;SDS011;6040;49.358;11.140;2022-11-23T03:02:55;4.77;;;2.87;;
11960;SDS011;6040;49.358;11.140;2022-11-23T03:05:25;5.27;;;2.90;;
11960;SDS011;6040;49.358;11.140;2022-11-23T03:07:52;3.67;;;2.90;;
11960;SDS011;6040;49.358;11.140;2022-11-23T03:10:19;3.87;;;2.70;;
11960;SDS011;6040;49.358;11.140;2022-11-23T03:12:46;3.30;;;2.63;;
11960;SDS011;6040;49.358;11.140;2022-11-23T03:15:13;7.00;;;3.00;;
11960;SDS011;6040;49.358;11.140;2022-11-23T03:17:41;4.27;;;2.33;;
11960;SDS011;6040;49.358;11.140;2022-11-23T03:20:08;3.87;;;2.43;;
11960;SDS011;6040;49.358;11.140;2022-11-23T03:22:36;3.73;;;2.57;;
11960;SDS011;6040;49.358;11.140;2022-11-23T03:25:04;4.13;;;2.70;;
11960;SDS011;6040;49.358;11.140;2022-11-23T03:27:31;5.33;;;2.60;;
11960;SDS011;6040;49.358;11.140;2022-11-23T03:29:59;3.20;;;2.37;;
11960;SDS011;6040;49.358;11.140;2022-11-23T03:32:25;6.87;;;3.17;;
11960;SDS011;6040;49.358;11.140;2022-11-23T03:34:54;6.43;;;2.83;;
11960;SDS011;6040;49.358;11.140;2022-11-23T03:37:20;3.80;;;2.50;;
11960;SDS011;6040;49.358;11.140;2022-11-23T03:39:48;5.00;;;2.37;;
11960;SDS011;6040;49.358;11.140;2022-11-23T03:42:15;4.27;;;2.87;;
11960;SDS011;6040;49.358;11.140;2022-11-23T03:44:42;6.77;;;2.77;;
11960;SDS011;6040;49.358;11.140;2022-11-23T03:47:09;2.57;;;2.23;;
11960;SDS011;6040;49.358;11.140;2022-11-23T03:49:36;4.77;;;2.43;;
11960;SDS011;6040;49.358;11.140;2022-11-23T03:52:04;7.50;;;2.27;;
11960;SDS011;6040;49.358;11.140;2022-11-23T03:54:31;3.10;;;2.23;;
11960;SDS011;6040;49.358;11.140;2022-11-23T03:56:58;4.20;;;2.27;;
11960;SDS011;6040;49.358;11.140;2022-11-23T03:59:25;3.03;;;2.60;;
11960;SDS011;6040;49.358;11.140;2022-11-23T04:01:52;3.87;;;2.37;;
11960;SDS011;6040;49.358;11.140;2022-11-23T04:04:18;4.83;;;2.57;;
11960;SDS011;6040;49.358;11.140;2022-11-23T04:06:45;5.43;;;2.80;;
11960;SDS011;6040;49.358;11.140;2022-11-23T04:09:13;6.40;;;2.40;;
11960;SDS011;6040;49.358;11.140;2022-11-23T04:11:40;4.70;;;2.47;;
11960;SDS011;6040;49.358;11.140;2022-11-23T04:14:07;6.00;;;2.53;;
11960;SDS011;6040;49.358;11.140;2022-11-23T04:16:34;4.00;;;2.40;;
11960;SDS011;6040;49.358;11.140;2022-11-23T04:19:01;6.60;;;2.80;;
11960;SDS011;6040;49.358;11.140;2022-11-23T04:21:28;5.70;;;2.27;;
11960;SDS011;6040;49.358;11.140;2022-11-23T04:23:55;4.83;;;2.57;;
11960;SDS011;6040;49.358;11.140;2022-11-23T04:26:23;6.37;;;2.40;;
11960;SDS011;6040;49.358;11.140;2022-11-23T04:28:50;3.23;;;2.27;;
11960;SDS011;6040;49.358;11.140;2022-11-23T04:31:17;4.43;;;2.30;;
11960;SDS011;6040;49.358;11.140;2022-11-23T04:33:43;2.70;;;2.20;;
11960;SDS011;6040;49.358;11.140;2022-11-23T04:36:10;6.27;;;2.70;;
11960;SDS011;6040;49.358;11.140;2022-11-23T04:38:37;6.13;;;2.20;;
11960;SDS011;6040;49.358;11.140;2022-11-23T04:41:04;6.90;;;2.63;;
11960;SDS011;6040;49.358;11.140;2022-11-23T04:43:32;3.90;;;2.60;;
11960;SDS011;6040;49.358;11.140;2022-11-23T04:45:59;6.70;;;2.50;;
11960;SDS011;6040;49.358;11.140;2022-11-23T04:48:25;5.37;;;2.60;;
11960;SDS011;6040;49.358;11.140;2022-11-23T04:50:52;3.90;;;2.20;;
11960;SDS011;6040;49.358;11.140;2022-11-23T04:53:19;3.13;;;2.30;;
11960;SDS011;6040;49.358;11.140;2022-11-23T04:55:46;3.53;;;2.20;;
11960;SDS011;6040;49.358;11.140;2022-11-23T04:58:13;4.97;;;3.00;;
11960;SDS011;6040;49.358;11.140;2022-11-23T05:00:41;3.60;;;2.27;;
11960;SDS011;6040;49.358;11.140;2022-11-23T05:03:08;6.07;;;2.53;;
11960;SDS011;6040;49.358;11.140;2022-11-23T05:05:36;6.07;;;2.80;;
11960;SDS011;6040;49.358;11.140;2022-11-23T05:08:03;5.30;;;2.77;;
11960;SDS011;6040;49.358;11.140;2022-11-23T05:10:30;6.93;;;2.80;;
11960;SDS011;6040;49.358;11.140;2022-11-23T05:12:57;3.40;;;2.40;;
11960;SDS011;6040;49.358;11.140;2022-11-23T05:15:24;4.97;;;2.30;;
11960;SDS011;6040;49.358;11.140;2022-11-23T05:17:52;4.10;;;2.73;;
11960;SDS011;6040;49.358;11.140;2022-11-23T05:20:19;5.23;;;3.10;;
11960;SDS011;6040;49.358;11.140;2022-11-23T05:22:46;4.63;;;2.97;;
11960;SDS011;6040;49.358;11.140;2022-11-23T05:25:13;4.47;;;2.60;;
11960;SDS011;6040;49.358;11.140;2022-11-23T05:27:40;4.93;;;2.77;;
11960;SDS011;6040;49.358;11.140;2022-11-23T05:30:08;3.40;;;2.53;;
11960;SDS011;6040;49.358;11.140;2022-11-23T05:32:36;4.30;;;2.80;;
11960;SDS011;6040;49.358;11.140;2022-11-23T05:35:05;6.43;;;2.60;;
11960;SDS011;6040;49.358;11.140;2022-11-23T05:37:32;4.27;;;2.77;;
11960;SDS011;6040;49.358;11.140;2022-11-23T05:39:59;6.50;;;2.93;;
11960;SDS011;6040;49.358;11.140;2022-11-23T05:42:26;7.83;;;3.57;;
11960;SDS011;6040;49.358;11.140;2022-11-23T05:44:53;8.77;;;3.30;;
11960;SDS011;6040;49.358;11.140;2022-11-23T05:47:20;5.27;;;3.13;;
11960;SDS011;6040;49.358;11.140;2022-11-23T05:49:47;6.13;;;3.70;;
11960;SDS011;6040;49.358;11.140;2022-11-23T05:52:15;4.10;;;3.37;;
11960;SDS011;6040;49.358;11.140;2022-11-23T05:54:42;5.83;;;3.40;;
11960;SDS011;6040;49.358;11.140;2022-11-23T05:57:09;4.73;;;3.17;;
11960;SDS011;6040;49.358;11.140;2022-11-23T05:59:36;5.50;;;3.37;;
11960;SDS011;6040;49.358;11.140;2022-11-23T06:02:03;5.17;;;3.73;;
11960;SDS011;6040;49.358;11.140;2022-11-23T06:04:30;6.17;;;4.00;;
11960;SDS011;6040;49.358;11.140;2022-11-23T06:06:57;9.33;;;5.63;;
11960;SDS011;6040;49.358;11.140;2022-11-23T06:09:26;12.83;;;5.73;;
11960;SDS011;6040;49.358;11.140;2022-11-23T06:11:53;9.03;;;6.40;;
11960;SDS011;6040;49.358;11.140;2022-11-23T06:14:20;9.40;;;6.77;;
11960;SDS011;6040;49.358;11.140;2022-11-23T06:16:47;10.90;;;6.17;;
11960;SDS011;6040;49.358;11.140;2022-11-23T06:19:13;11.73;;;7.07;;
11960;SDS011;6040;49.358;11.140;2022-11-23T06:21:40;7.60;;;5.60;;
11960;SDS011;6040;49.358;11.140;2022-11-23T06:24:07;6.90;;;5.13;;
11960;SDS011;6040;49.358;11.140;2022-11-23T06:26:35;7.40;;;3.87;;
11960;SDS011;6040;49.358;11.140;2022-11-23T06:29:02;5.53;;;3.33;;
11960;SDS011;6040;49.358;11.140;2022-11-23T06:31:29;4.07;;;3.10;;
11960;SDS011;6040;49.358;11.140;2022-11-23T06:33:56;5.80;;;2.80;;
11960;SDS011;6040;49.358;11.140;2022-11-23T06:36:23;8.97;;;3.37;;
11960;SDS011;6040;49.358;11.140;2022-11-23T06:38:49;8.53;;;3.27;;
11960;SDS011;6040;49.358;11.140;2022-11-23T06:41:16;5.17;;;2.97;;
11960;SDS011;6040;49.358;11.140;2022-11-23T06:43:46;7.60;;;3.57;;
11960;SDS011;6040;49.358;11.140;2022-11-23T06:46:13;8.73;;;3.07;;
11960;SDS011;6040;49.358;11.140;2022-11-23T06:48:42;6.83;;;3.43;;
11960;SDS011;6040;49.358;11.140;2022-11-23T06:51:10;5.47;;;3.47;;
11960;SDS011;6040;49.358;11.140;2022-11-23T06:53:38;4.10;;;3.00;;
11960;SDS011;6040;49.358;11.140;2022-11-23T06:56:05;6.43;;;3.57;;
11960;SDS011;6040;49.358;11.140;2022-11-23T06:58:32;7.17;;;3.80;;
11960;SDS011;6040;49.358;11.140;2022-11-23T07:01:01;6.53;;;3.87;;
11960;SDS011;6040;49.358;11.140;2022-11-23T07:03:29;5.53;;;3.37;;
11960;SDS011;6040;49.358;11.140;2022-11-23T07:05:56;4.93;;;3.70;;
11960;SDS011;6040;49.358;11.140;2022-11-23T07:08:23;4.03;;;3.50;;
11960;SDS011;6040;49.358;11.140;2022-11-23T07:10:50;6.50;;;3.57;;
11960;SDS011;6040;49.358;11.140;2022-11-23T07:13:17;8.67;;;4.27;;
11960;SDS011;6040;49.358;11.140;2022-11-23T07:15:44;5.53;;;3.83;;
11960;SDS011;6040;49.358;11.140;2022-11-23T07:18:13;8.93;;;4.17;;
11960;SDS011;6040;49.358;11.140;2022-11-23T07:20:40;12.50;;;7.73;;
11960;SDS011;6040;49.358;11.140;2022-11-23T07:23:07;8.20;;;5.30;;
11960;SDS011;6040;49.358;11.140;2022-11-23T07:25:36;8.93;;;5.40;;
11960;SDS011;6040;49.358;11.140;2022-11-23T07:28:04;7.57;;;5.07;;
11960;SDS011;6040;49.358;11.140;2022-11-23T07:30:33;7.73;;;5.40;;
11960;SDS011;6040;49.358;11.140;2022-11-23T07:33:00;8.73;;;5.70;;
11960;SDS011;6040;49.358;11.140;2022-11-23T07:35:30;10.23;;;5.50;;
11960;SDS011;6040;49.358;11.140;2022-11-23T07:37:57;9.30;;;6.27;;
11960;SDS011;6040;49.358;11.140;2022-11-23T07:40:24;9.93;;;5.87;;
11960;SDS011;6040;49.358;11.140;2022-11-23T07:42:51;9.43;;;5.77;;
11960;SDS011;6040;49.358;11.140;2022-11-23T07:45:18;9.13;;;5.77;;
11960;SDS011;6040;49.358;11.140;2022-11-23T07:47:47;9.03;;;6.37;;
11960;SDS011;6040;49.358;11.140;2022-11-23T07:50:22;10.00;;;7.20;;
11960;SDS011;6040;49.358;11.140;2022-11-23T07:52:50;10.07;;;6.73;;
11960;SDS011;6040;49.358;11.140;2022-11-23T07:55:17;11.90;;;6.73;;
11960;SDS011;6040;49.358;11.140;2022-11-23T07:57:44;10.57;;;6.23;;
11960;SDS011;6040;49.358;11.140;2022-11-23T08:00:11;9.63;;;5.47;;
11960;SDS011;6040;49.358;11.140;2022-11-23T08:02:38;9.60;;;5.00;;
11960;SDS011;6040;49.358;11.140;2022-11-23T08:05:05;10.77;;;5.30;;
11960;SDS011;6040;49.358;11.140;2022-11-23T08:07:33;8.30;;;5.17;;
11960;SDS011;6040;49.358;11.140;2022-11-23T08:10:01;6.27;;;4.50;;
11960;SDS011;6040;49.358;11.140;2022-11-23T08:12:28;9.07;;;5.17;;
11960;SDS011;6040;49.358;11.140;2022-11-23T08:14:54;7.43;;;4.77;;
11960;SDS011;6040;49.358;11.140;2022-11-23T08:17:21;8.67;;;4.83;;
11960;SDS011;6040;49.358;11.140;2022-11-23T08:19:48;7.13;;;4.20;;
11960;SDS011;6040;49.358;11.140;2022-11-23T08:22:15;7.67;;;4.70;;
11960;SDS011;6040;49.358;11.140;2022-11-23T08:24:42;8.97;;;5.10;;
11960;SDS011;6040;49.358;11.140;2022-11-23T08:27:10;7.87;;;4.57;;
11960;SDS011;6040;49.358;11.140;2022-11-23T08:29:37;22.03;;;16.90;;
11960;SDS011;6040;49.358;11.140;2022-11-23T08:32:04;22.30;;;15.50;;
11960;SDS011;6040;49.358;11.140;2022-11-23T08:34:31;21.27;;;14.87;;
11960;SDS011;6040;49.358;11.140;2022-11-23T08:36:57;15.23;;;11.63;;
11960;SDS011;6040;49.358;11.140;2022-11-23T08:39:24;13.93;;;7.57;;
11960;SDS011;6040;49.358;11.140;2022-11-23T08:41:51;18.73;;;12.30;;
11960;SDS011;6040;49.358;11.140;2022-11-23T08:44:19;71.47;;;40.93;;
11960;SDS011;6040;49.358;11.140;2022-11-23T08:46:46;73.60;;;40.03;;
11960;SDS011;6040;49.358;11.140;2022-11-23T08:49:13;33.87;;;21.00;;
11960;SDS011;6040;49.358;11.140;2022-11-23T08:51:40;12.90;;;9.27;;
11960;SDS011;6040;49.358;11.140;2022-11-23T08:54:06;12.13;;;7.00;;
11960;SDS011;6040;49.358;11.140;2022-11-23T08:56:33;11.97;;;5.40;;
11960;SDS011;6040;49.358;11.140;2022-11-23T08:59:00;9.03;;;5.00;;
11960;SDS011;6040;49.358;11.140;2022-11-23T09:01:28;9.97;;;5.37;;
11960;SDS011;6040;49.358;11.140;2022-11-23T09:03:55;6.83;;;4.80;;
11960;SDS011;6040;49.358;11.140;2022-11-23T09:06:22;7.90;;;4.23;;
11960;SDS011;6040;49.358;11.140;2022-11-23T09:08:53;7.30;;;5.27;;
11960;SDS011;6040;49.358;11.140;2022-11-23T09:11:19;7.20;;;4.80;;
11960;SDS011;6040;49.358;11.140;2022-11-23T09:13:46;6.80;;;4.67;;
11960;SDS011;6040;49.358;11.140;2022-11-23T09:16:13;6.43;;;4.30;;
11960;SDS011;6040;49.358;11.140;2022-11-23T09:18:41;8.83;;;4.07;;
11960;SDS011;6040;49.358;11.140;2022-11-23T09:21:08;7.73;;;5.10;;
11960;SDS011;6040;49.358;11.140;2022-11-23T09:23:35;7.63;;;4.73;;
11960;SDS011;6040;49.358;11.140;2022-11-23T09:26:03;7.97;;;4.60;;
11960;SDS011;6040;49.358;11.140;2022-11-23T09:28:30;8.17;;;5.10;;
11960;SDS011;6040;49.358;11.140;2022-11-23T09:31:00;8.07;;;4.57;;
11960;SDS011;6040;49.358;11.140;2022-11-23T09:33:28;7.93;;;4.03;;
11960;SDS011;6040;49.358;11.140;2022-11-23T09:35:57;8.33;;;3.80;;
11960;SDS011;6040;49.358;11.140;2022-11-23T09:38:25;5.83;;;3.90;;
11960;SDS011;6040;49.358;11.140;2022-11-23T09:40:54;5.27;;;3.70;;
11960;SDS011;6040;49.358;11.140;2022-11-23T09:43:37;7.50;;;4.10;;
11960;SDS011;6040;49.358;11.140;2022-11-23T09:46:11;8.17;;;4.00;;
11960;SDS011;6040;49.358;11.140;2022-11-23T09:48:54;6.30;;;3.67;;
11960;SDS011;6040;49.358;11.140;2022-11-23T09:51:34;6.70;;;3.50;;
11960;SDS011;6040;49.358;11.140;2022-11-23T09:54:03;5.07;;;3.63;;
11960;SDS011;6040;49.358;11.140;2022-11-23T09:56:35;5.33;;;3.70;;
11960;SDS011;6040;49.358;11.140;2022-11-23T09:59:04;9.13;;;3.90;;
11960;SDS011;6040;49.358;11.140;2022-11-23T10:01:37;6.00;;;3.63;;
11960;SDS011;6040;49.358;11.140;2022-11-23T10:04:04;8.77;;;4.00;;
11960;SDS011;6040;49.358;11.140;2022-11-23T10:06:36;5.40;;;3.13;;
11960;SDS011;6040;49.358;11.140;2022-11-23T10:09:14;5.70;;;2.80;;
11960;SDS011;6040;49.358;11.140;2022-11-23T10:14:47;6.20;;;3.30;;
11960;SDS011;6040;49.358;11.140;2022-11-23T10:17:27;6.93;;;3.00;;
11960;SDS011;6040;49.358;11.140;2022-11-23T10:20:16;4.83;;;3.10;;
11960;SDS011;6040;49.358;11.140;2022-11-23T10:22:56;4.80;;;2.97;;
11960;SDS011;6040;49.358;11.140;2022-11-23T10:25:24;6.50;;;4.57;;
11960;SDS011;6040;49.358;11.140;2022-11-23T10:27:55;7.17;;;3.00;;
11960;SDS011;6040;49.358;11.140;2022-11-23T10:30:26;8.53;;;4.30;;
11960;SDS011;6040;49.358;11.140;2022-11-23T10:32:54;4.57;;;2.90;;
11960;SDS011;6040;49.358;11.140;2022-11-23T10:35:26;5.80;;;3.07;;
11960;SDS011;6040;49.358;11.140;2022-11-23T10:38:09;3.47;;;2.60;;
11960;SDS011;6040;49.358;11.140;2022-11-23T10:40:36;4.87;;;2.60;;
11960;SDS011;6040;49.358;11.140;2022-11-23T10:43:09;8.77;;;2.77;;
11960;SDS011;6040;49.358;11.140;2022-11-23T10:45:41;3.20;;;2.40;;
11960;SDS011;6040;49.358;11.140;2022-11-23T10:48:08;3.60;;;2.07;;
11960;SDS011;6040;49.358;11.140;2022-11-23T10:50:35;3.93;;;2.20;;
11960;SDS011;6040;49.358;11.140;2022-11-23T10:53:20;4.07;;;2.30;;
11960;SDS011;6040;49.358;11.140;2022-11-23T10:55:53;5.37;;;2.10;;
11960;SDS011;6040;49.358;11.140;2022-11-23T10:58:24;5.20;;;2.30;;
11960;SDS011;6040;49.358;11.140;2022-11-23T11:00:57;3.70;;;2.17;;
11960;SDS011;6040;49.358;11.140;2022-11-23T11:03:25;5.17;;;2.60;;
11960;SDS011;6040;49.358;11.140;2022-11-23T11:05:56;3.87;;;2.30;;
11960;SDS011;6040;49.358;11.140;2022-11-23T11:08:27;5.73;;;2.53;;
11960;SDS011;6040;49.358;11.140;2022-11-23T11:10:56;3.33;;;2.33;;
11960;SDS011;6040;49.358;11.140;2022-11-23T11:13:26;3.90;;;2.47;;
11960;SDS011;6040;49.358;11.140;2022-11-23T11:15:55;4.40;;;2.63;;
11960;SDS011;6040;49.358;11.140;2022-11-23T11:18:24;4.40;;;2.30;;
11960;SDS011;6040;49.358;11.140;2022-11-23T11:20:58;4.83;;;2.40;;
11960;SDS011;6040;49.358;11.140;2022-11-23T11:23:28;5.93;;;2.40;;
11960;SDS011;6040;49.358;11.140;2022-11-23T11:26:04;3.70;;;2.00;;
11960;SDS011;6040;49.358;11.140;2022-11-23T11:28:35;3.83;;;2.27;;
11960;SDS011;6040;49.358;11.140;2022-11-23T11:31:22;7.10;;;2.53;;
11960;SDS011;6040;49.358;11.140;2022-11-23T11:34:01;4.57;;;1.90;;
11960;SDS011;6040;49.358;11.140;2022-11-23T11:36:36;4.93;;;2.53;;
11960;SDS011;6040;49.358;11.140;2022-11-23T11:39:11;3.73;;;2.03;;
11960;SDS011;6040;49.358;11.140;2022-11-23T11:41:45;3.70;;;2.17;;
11960;SDS011;6040;49.358;11.140;2022-11-23T11:44:15;5.13;;;2.33;;
11960;SDS011;6040;49.358;11.140;2022-11-23T11:46:46;5.17;;;2.13;;
11960;SDS011;6040;49.358;11.140;2022-11-23T11:49:17;4.20;;;2.23;;
11960;SDS011;6040;49.358;11.140;2022-11-23T11:51:48;3.93;;;1.90;;
11960;SDS011;6040;49.358;11.140;2022-11-23T11:54:22;3.23;;;2.00;;
11960;SDS011;6040;49.358;11.140;2022-11-23T11:56:54;5.13;;;1.47;;
11960;SDS011;6040;49.358;11.140;2022-11-23T11:59:27;4.60;;;1.60;;
11960;SDS011;6040;49.358;11.140;2022-11-23T12:01:57;4.43;;;2.20;;
11960;SDS011;6040;49.358;11.140;2022-11-23T12:04:36;3.70;;;2.43;;
11960;SDS011;6040;49.358;11.140;2022-11-23T12:07:07;5.03;;;2.40;;
11960;SDS011;6040;49.358;11.140;2022-11-23T12:09:43;7.60;;;2.40;;
11960;SDS011;6040;49.358;11.140;2022-11-23T12:12:14;3.87;;;2.00;;
11960;SDS011;6040;49.358;11.140;2022-11-23T12:14:43;4.20;;;2.33;;
11960;SDS011;6040;49.358;11.140;2022-11-23T12:17:16;6.67;;;2.10;;
11960;SDS011;6040;49.358;11.140;2022-11-23T12:19:58;3.57;;;2.10;;
11960;SDS011;6040;49.358;11.140;2022-11-23T12:22:33;5.80;;;2.27;;
11960;SDS011;6040;49.358;11.140;2022-11-23T12:25:12;3.83;;;2.63;;
11960;SDS011;6040;49.358;11.140;2022-11-23T12:27:48;6.03;;;2.60;;
11960;SDS011;6040;49.358;11.140;2022-11-23T12:30:26;5.37;;;2.50;;
11960;SDS011;6040;49.358;11.140;2022-11-23T12:33:14;6.80;;;2.80;;
11960;SDS011;6040;49.358;11.140;2022-11-23T12:38:50;5.17;;;2.50;;
11960;SDS011;6040;49.358;11.140;2022-11-23T12:41:25;7.37;;;4.27;;
11960;SDS011;6040;49.358;11.140;2022-11-23T12:44:11;4.30;;;2.63;;
11960;SDS011;6040;49.358;11.140;2022-11-23T12:46:52;6.00;;;2.70;;
11960;SDS011;6040;49.358;11.140;2022-11-23T12:49:27;4.50;;;2.40;;
11960;SDS011;6040;49.358;11.140;2022-11-23T12:52:04;6.73;;;2.50;;
11960;SDS011;6040;49.358;11.140;2022-11-23T12:54:49;4.13;;;2.07;;
11960;SDS011;6040;49.358;11.140;2022-11-23T12:57:23;4.70;;;2.73;;
11960;SDS011;6040;49.358;11.140;2022-11-23T12:59:58;3.67;;;2.50;;
11960;SDS011;6040;49.358;11.140;2022-11-23T13:02:48;6.07;;;3.10;;
11960;SDS011;6040;49.358;11.140;2022-11-23T13:08:59;4.83;;;2.50;;
11960;SDS011;6040;49.358;11.140;2022-11-23T13:11:48;4.57;;;2.80;;
11960;SDS011;6040;49.358;11.140;2022-11-23T13:14:37;5.33;;;2.93;;
11960;SDS011;6040;49.358;11.140;2022-11-23T13:17:11;4.23;;;2.67;;
11960;SDS011;6040;49.358;11.140;2022-11-23T13:19:52;4.30;;;2.37;;
11960;SDS011;6040;49.358;11.140;2022-11-23T13:22:43;4.17;;;2.97;;
11960;SDS011;6040;49.358;11.140;2022-11-23T13:25:18;6.37;;;2.87;;
11960;SDS011;6040;49.358;11.140;2022-11-23T13:28:00;5.80;;;3.40;;
11960;SDS011;6040;49.358;11.140;2022-11-23T13:30:31;9.10;;;3.23;;
11960;SDS011;6040;49.358;11.140;2022-11-23T13:33:00;4.63;;;2.97;;
11960;SDS011;6040;49.358;11.140;2022-11-23T13:35:53;5.07;;;2.43;;
11960;SDS011;6040;49.358;11.140;2022-11-23T13:44:23;4.00;;;2.70;;
11960;SDS011;6040;49.358;11.140;2022-11-23T13:46:57;5.93;;;2.80;;
11960;SDS011;6040;49.358;11.140;2022-11-23T13:49:38;5.50;;;2.70;;
11960;SDS011;6040;49.358;11.140;2022-11-23T13:52:25;4.57;;;2.50;;
11960;SDS011;6040;49.358;11.140;2022-11-23T13:55:16;4.13;;;2.50;;
11960;SDS011;6040;49.358;11.140;2022-11-23T13:57:45;5.23;;;2.30;;
11960;SDS011;6040;49.358;11.140;2022-11-23T14:01:01;4.53;;;2.13;;
11960;SDS011;6040;49.358;11.140;2022-11-23T14:03:48;5.00;;;2.27;;
11960;SDS011;6040;49.358;11.140;2022-11-23T14:06:24;4.80;;;2.87;;
11960;SDS011;6040;49.358;11.140;2022-11-23T14:08:58;6.20;;;2.90;;
11960;SDS011;6040;49.358;11.140;2022-11-23T14:11:29;4.57;;;2.67;;
11960;SDS011;6040;49.358;11.140;2022-11-23T14:14:04;6.80;;;2.53;;
11960;SDS011;6040;49.358;11.140;2022-11-23T14:19:41;5.27;;;2.80;;
11960;SDS011;6040;49.358;11.140;2022-11-23T14:22:24;4.90;;;3.00;;
11960;SDS011;6040;49.358;11.140;2022-11-23T14:25:09;5.97;;;3.17;;
11960;SDS011;6040;49.358;11.140;2022-11-23T14:27:55;8.87;;;3.20;;
11960;SDS011;6040;49.358;11.140;2022-11-23T14:30:44;8.00;;;3.03;;
11960;SDS011;6040;49.358;11.140;2022-11-23T14:33:21;4.73;;;2.67;;
11960;SDS011;6040;49.358;11.140;2022-11-23T14:35:58;8.90;;;2.60;;
11960;SDS011;6040;49.358;11.140;2022-11-23T14:38:34;4.93;;;2.50;;
11960;SDS011;6040;49.358;11.140;2022-11-23T14:41:22;5.43;;;3.23;;
11960;SDS011;6040;49.358;11.140;2022-11-23T14:43:51;7.83;;;3.00;;
11960;SDS011;6040;49.358;11.140;2022-11-23T14:46:19;5.93;;;3.27;;
11960;SDS011;6040;49.358;11.140;2022-11-23T14:48:49;5.13;;;3.30;;
11960;SDS011;6040;49.358;11.140;2022-11-23T14:51:18;7.30;;;3.30;;
11960;SDS011;6040;49.358;11.140;2022-11-23T14:53:49;5.20;;;3.00;;
11960;SDS011;6040;49.358;11.140;2022-11-23T14:56:19;3.83;;;2.93;;
11960;SDS011;6040;49.358;11.140;2022-11-23T14:58:58;4.77;;;3.00;;
11960;SDS011;6040;49.358;11.140;2022-11-23T15:01:28;6.67;;;3.30;;
11960;SDS011;6040;49.358;11.140;2022-11-23T15:03:56;7.70;;;3.60;;
11960;SDS011;6040;49.358;11.140;2022-11-23T15:06:26;6.23;;;3.80;;
11960;SDS011;6040;49.358;11.140;2022-11-23T15:09:00;5.83;;;3.53;;
11960;SDS011;6040;49.358;11.140;2022-11-23T15:11:33;5.63;;;3.73;;
11960;SDS011;6040;49.358;11.140;2022-11-23T15:14:02;8.37;;;4.03;;
11960;SDS011;6040;49.358;11.140;2022-11-23T15:16:41;7.33;;;3.97;;
11960;SDS011;6040;49.358;11.140;2022-11-23T15:19:17;7.37;;;4.20;;
11960;SDS011;6040;49.358;11.140;2022-11-23T15:21:46;14.50;;;5.60;;
11960;SDS011;6040;49.358;11.140;2022-11-23T15:24:19;11.13;;;5.40;;